Time;durP1;ratioP1;P1;durP2;ratioP2;P2;SDS_P1;SDS_P2;PMS_P1;PMS_P2;Temp;Humidity;BMP_temperature;BMP_pressure;BME280_temperature;BME280_humidity;BME280_pressure;Samples;Min_cycle;Max_cycle;Signal;HPM_P1;HPM_P2
2023/12/17 00:02:54;;;;;;;29.60;16.00;;;;;;;3.47;87.37;100631.88;226533;1272;22558;-73
2023/12/17 00:08:21;;;;;;;24.00;14.40;;;;;;;3.50;87.57;100622.27;226602;1273;22648;-73
2023/12/17 00:13:24;;;;;;;23.60;14.10;;;;;;;3.54;87.40;100608.13;226564;1272;25361;-73
2023/12/17 00:18:27;;;;;;;25.50;14.60;;;;;;;3.57;87.22;100596.60;226564;1269;22550;-73
2023/12/17 00:23:29;;;;;;;22.60;14.20;;;;;;;3.60;87.27;100588.90;226547;1273;22546;-73
2023/12/17 00:28:34;;;;;;;20.80;12.60;;;;;;;3.63;87.18;100585.41;226445;1273;22630;-74
2023/12/17 00:33:36;;;;;;;21.80;12.30;;;;;;;3.65;87.44;100590.33;226566;1272;22539;-74
2023/12/17 00:38:39;;;;;;;22.40;12.80;;;;;;;3.68;87.21;100597.10;226565;1270;22553;-73
2023/12/17 00:43:41;;;;;;;21.70;12.70;;;;;;;3.71;87.10;100588.36;226584;1269;22954;-74
2023/12/17 00:48:43;;;;;;;22.60;12.60;;;;;;;3.74;86.88;100582.60;226591;1270;22545;-75
2023/12/17 00:53:45;;;;;;;24.50;13.80;;;;;;;3.74;86.80;100592.48;226611;1272;22533;-75
2023/12/17 00:58:47;;;;;;;21.10;12.50;;;;;;;3.75;86.58;100594.88;226535;1273;22535;-74
2023/12/17 01:03:49;;;;;;;20.20;12.00;;;;;;;3.75;86.69;100591.19;226540;1273;22543;-73
2023/12/17 01:08:51;;;;;;;18.70;13.10;;;;;;;3.77;86.83;100591.26;226474;1270;22689;-74
2023/12/17 01:13:53;;;;;;;23.30;13.30;;;;;;;3.79;86.98;100596.90;226568;1272;22560;-75
2023/12/17 01:18:56;;;;;;;21.60;13.00;;;;;;;3.80;86.58;100581.98;226471;1269;22969;-75
2023/12/17 01:23:58;;;;;;;21.30;13.50;;;;;;;3.80;86.62;100591.25;226538;1272;23005;-73
2023/12/17 01:29:01;;;;;;;20.90;12.90;;;;;;;3.81;86.35;100592.04;226452;1273;22581;-73
2023/12/17 01:34:03;;;;;;;22.10;13.50;;;;;;;3.84;86.68;100606.17;226531;1273;22541;-75
2023/12/17 01:39:05;;;;;;;22.40;13.20;;;;;;;3.85;86.50;100607.61;226435;1273;22574;-74
2023/12/17 01:44:07;;;;;;;19.80;12.60;;;;;;;3.85;86.17;100594.24;226419;1272;22972;-73
2023/12/17 01:49:09;;;;;;;22.30;13.20;;;;;;;3.83;86.50;100591.90;226431;1273;22552;-73
2023/12/17 01:54:12;;;;;;;22.70;12.90;;;;;;;3.80;86.16;100595.56;226374;1270;22610;-73
2023/12/17 01:59:14;;;;;;;20.00;12.80;;;;;;;3.75;86.07;100603.56;226462;1272;22583;-74
2023/12/17 02:04:17;;;;;;;20.40;13.00;;;;;;;3.66;86.38;100600.02;226438;1272;25326;-73
2023/12/17 02:09:19;;;;;;;23.60;14.30;;;;;;;3.53;86.00;100584.27;226423;1273;23191;-75
2023/12/17 02:14:21;;;;;;;20.90;13.00;;;;;;;3.41;86.12;100580.20;226505;1269;22572;-74
2023/12/17 02:19:23;;;;;;;20.80;13.40;;;;;;;3.31;86.29;100587.83;226552;1272;22576;-74
2023/12/17 02:24:25;;;;;;;22.10;13.90;;;;;;;3.22;86.40;100601.47;226570;1273;22536;-73
2023/12/17 02:29:27;;;;;;;21.00;13.30;;;;;;;3.14;86.33;100593.75;226558;1272;22540;-74
2023/12/17 02:34:29;;;;;;;22.10;13.70;;;;;;;3.05;86.52;100593.79;226314;1272;25400;-73
2023/12/17 02:39:32;;;;;;;21.50;13.90;;;;;;;2.97;86.31;100588.55;226543;1269;22542;-73
2023/12/17 02:44:34;;;;;;;22.30;13.30;;;;;;;2.90;86.50;100584.33;226546;1269;22566;-73
2023/12/17 02:49:36;;;;;;;21.10;14.20;;;;;;;2.80;86.54;100585.39;226474;1273;22560;-73
2023/12/17 02:54:38;;;;;;;26.40;15.50;;;;;;;2.73;86.64;100579.96;226547;1272;22544;-73
2023/12/17 02:59:40;;;;;;;21.70;13.70;;;;;;;2.65;86.72;100571.73;226490;1272;22547;-74
2023/12/17 03:04:42;;;;;;;21.00;13.90;;;;;;;2.60;86.68;100573.27;226354;1273;25261;-74
2023/12/17 03:09:44;;;;;;;23.70;14.50;;;;;;;2.56;86.92;100568.48;226531;1273;22554;-74
2023/12/17 03:14:46;;;;;;;21.70;13.30;;;;;;;2.53;86.99;100571.46;226489;1269;22543;-74
2023/12/17 03:19:48;;;;;;;21.20;13.30;;;;;;;2.52;87.15;100576.06;226576;1272;22528;-73
2023/12/17 03:24:50;;;;;;;22.70;13.70;;;;;;;2.51;87.04;100574.05;226513;1269;25003;-74
2023/12/17 03:29:53;;;;;;;21.60;13.40;;;;;;;2.49;87.11;100567.52;226572;1272;22547;-73
2023/12/17 03:34:55;;;;;;;18.80;12.80;;;;;;;2.47;87.29;100581.88;226543;1269;24256;-73
2023/12/17 03:39:57;;;;;;;19.80;12.40;;;;;;;2.48;87.26;100577.99;226568;1270;23237;-74
2023/12/17 03:44:59;;;;;;;22.00;13.10;;;;;;;2.47;87.32;100573.90;226605;1272;22542;-73
2023/12/17 03:50:01;;;;;;;21.20;11.60;;;;;;;2.45;87.46;100558.33;226581;1272;22562;-73
2023/12/17 03:55:03;;;;;;;20.20;12.60;;;;;;;2.44;87.26;100545.86;226574;1270;22524;-73
2023/12/17 04:00:06;;;;;;;21.30;11.80;;;;;;;2.44;87.53;100541.52;226570;1269;22575;-74
2023/12/17 04:05:09;;;;;;;19.30;12.40;;;;;;;2.46;87.68;100540.05;226783;1269;22593;-74
2023/12/17 04:10:11;;;;;;;21.60;11.40;;;;;;;2.47;87.49;100543.81;226460;1272;22585;-74
2023/12/17 04:15:15;;;;;;;19.80;12.00;;;;;;;2.46;87.56;100527.15;226582;1270;24308;-74
2023/12/17 04:20:17;;;;;;;20.10;12.70;;;;;;;2.46;87.57;100531.86;226553;1272;22545;-74
2023/12/17 04:25:19;;;;;;;19.10;12.00;;;;;;;2.44;87.82;100535.25;226486;1269;22538;-72
2023/12/17 04:30:21;;;;;;;22.20;13.10;;;;;;;2.42;87.82;100537.15;226514;1270;22540;-72
2023/12/17 04:35:23;;;;;;;19.30;12.20;;;;;;;2.40;87.66;100540.77;226530;1272;22566;-72
2023/12/17 04:40:25;;;;;;;18.00;11.70;;;;;;;2.37;87.85;100539.86;226562;1273;22660;-72
2023/12/17 04:45:27;;;;;;;19.00;11.50;;;;;;;2.37;88.03;100539.00;226470;1272;22569;-72
2023/12/17 04:50:31;;;;;;;19.60;11.60;;;;;;;2.38;88.17;100535.11;226465;1272;22545;-73
2023/12/17 04:55:34;;;;;;;22.30;12.20;;;;;;;2.38;87.85;100533.55;226340;1273;22565;-72
2023/12/17 05:00:36;;;;;;;22.60;11.70;;;;;;;2.39;87.98;100531.61;226511;1269;25275;-71
2023/12/17 05:05:38;;;;;;;23.00;12.60;;;;;;;2.37;87.84;100528.77;226479;1272;23301;-72
2023/12/17 05:10:41;;;;;;;22.20;11.80;;;;;;;2.35;88.09;100523.87;226461;1272;22521;-73
2023/12/17 05:15:43;;;;;;;21.80;11.80;;;;;;;2.33;88.11;100519.11;226484;1272;24275;-72
2023/12/17 05:20:46;;;;;;;19.00;10.80;;;;;;;2.32;88.26;100518.98;226460;1272;22536;-73
2023/12/17 05:25:48;;;;;;;20.50;11.90;;;;;;;2.32;88.49;100517.27;226440;1273;22564;-73
2023/12/17 05:30:50;;;;;;;18.80;12.50;;;;;;;2.33;88.60;100516.15;226539;1270;22644;-73
2023/12/17 05:35:52;;;;;;;20.00;12.10;;;;;;;2.35;88.48;100514.64;226526;1272;22549;-73
2023/12/17 05:40:55;;;;;;;21.00;12.40;;;;;;;2.34;88.68;100515.72;226484;1273;22541;-72
2023/12/17 05:45:57;;;;;;;20.70;12.70;;;;;;;2.34;88.66;100508.96;226688;1272;22547;-72
2023/12/17 05:51:00;;;;;;;24.70;14.50;;;;;;;2.34;88.69;100504.64;226456;1269;22521;-72
2023/12/17 05:56:02;;;;;;;21.90;12.40;;;;;;;2.35;89.13;100504.40;226549;1269;25277;-74
2023/12/17 06:01:04;;;;;;;26.80;13.40;;;;;;;2.37;89.01;100509.13;226453;1272;24931;-73
2023/12/17 06:06:08;;;;;;;19.10;11.00;;;;;;;2.37;89.17;100517.09;226477;1266;22578;-74
2023/12/17 06:11:14;;;;;;;19.90;12.90;;;;;;;2.39;89.26;100518.71;226471;1273;23248;-73
2023/12/17 06:16:16;;;;;;;21.60;13.10;;;;;;;2.42;89.50;100520.83;226568;1273;22557;-72
2023/12/17 06:21:27;;;;;;;23.20;14.30;;;;;;;2.41;89.09;100521.52;226435;1270;25337;-74
2023/12/17 06:26:30;;;;;;;24.90;14.40;;;;;;;2.40;89.18;100529.60;226500;1274;22547;-73
2023/12/17 06:31:32;;;;;;;24.60;14.50;;;;;;;2.39;89.56;100528.61;226583;1274;22694;-73
2023/12/17 06:36:34;;;;;;;18.80;12.80;;;;;;;2.39;89.52;100540.81;226935;1256;22587;-73
2023/12/17 06:41:43;;;;;;;17.90;11.30;;;;;;;2.39;89.36;100545.86;226511;1272;24048;-72
2023/12/17 06:46:46;;;;;;;18.50;12.70;;;;;;;2.40;89.38;100552.23;226470;1272;22503;-74
2023/12/17 06:51:48;;;;;;;23.20;14.70;;;;;;;2.40;89.51;100560.40;226515;1274;22540;-74
2023/12/17 06:56:50;;;;;;;23.40;14.70;;;;;;;2.40;89.74;100570.33;226521;1272;22673;-73
2023/12/17 07:01:52;;;;;;;23.00;13.90;;;;;;;2.41;89.75;100573.02;226504;1273;25491;-74
2023/12/17 07:06:55;;;;;;;22.20;13.90;;;;;;;2.46;89.92;100574.46;226489;1273;22540;-73
2023/12/17 07:11:57;;;;;;;23.50;13.70;;;;;;;2.50;89.69;100571.66;226530;1272;22583;-73
2023/12/17 07:16:59;;;;;;;25.00;13.50;;;;;;;2.53;89.81;100578.24;226408;1272;22709;-74
2023/12/17 07:22:00;;;;;;;22.70;13.90;;;;;;;2.60;90.10;100579.73;226364;1272;22559;-72
2023/12/17 07:27:03;;;;;;;22.10;14.60;;;;;;;2.67;90.36;100576.30;226490;1272;22553;-73
2023/12/17 07:32:05;;;;;;;23.40;14.40;;;;;;;2.75;90.37;100575.83;226443;1272;24253;-73
2023/12/17 07:37:07;;;;;;;23.80;14.50;;;;;;;2.84;90.26;100581.02;226507;1263;22544;-73
2023/12/17 07:42:09;;;;;;;21.70;14.70;;;;;;;2.97;90.27;100587.55;226477;1274;22624;-73
2023/12/17 07:47:11;;;;;;;22.90;14.10;;;;;;;3.09;89.98;100591.09;226421;1270;22537;-72
2023/12/17 07:52:15;;;;;;;26.40;16.90;;;;;;;3.21;90.04;100583.89;226449;1272;22556;-73
2023/12/17 07:57:17;;;;;;;34.70;22.40;;;;;;;3.34;90.14;100587.46;226460;1272;22648;-74
2023/12/17 08:02:19;;;;;;;31.10;21.20;;;;;;;3.44;90.06;100593.74;226458;1272;22536;-73
2023/12/17 08:07:21;;;;;;;27.80;17.40;;;;;;;3.54;89.79;100592.05;226458;1272;22554;-74
2023/12/17 08:12:24;;;;;;;26.40;16.00;;;;;;;3.64;90.02;100591.58;226508;1256;22573;-75
2023/12/17 08:17:26;;;;;;;26.10;17.00;;;;;;;3.75;89.95;100591.40;226593;1270;22583;-74
2023/12/17 08:22:28;;;;;;;19.70;13.50;;;;;;;3.84;89.69;100590.93;226383;1273;22533;-73
2023/12/17 08:27:30;;;;;;;27.30;15.40;;;;;;;3.95;89.72;100590.62;226390;1271;23021;-72
2023/12/17 08:32:33;;;;;;;24.90;15.60;;;;;;;4.04;89.74;100589.86;226435;1272;24256;-75
2023/12/17 08:37:35;;;;;;;24.90;14.90;;;;;;;4.14;89.56;100590.02;226427;1273;25316;-76
2023/12/17 08:42:37;;;;;;;20.70;14.30;;;;;;;4.24;89.43;100597.70;226530;1272;24631;-74
2023/12/17 08:47:40;;;;;;;21.70;14.80;;;;;;;4.33;88.86;100611.79;226394;1272;25289;-74
2023/12/17 08:52:44;;;;;;;23.80;14.70;;;;;;;4.41;88.92;100611.73;226412;1272;22536;-74
2023/12/17 08:57:49;;;;;;;22.10;14.80;;;;;;;4.52;88.98;100619.52;226440;1272;25222;-73
2023/12/17 09:02:51;;;;;;;22.10;15.40;;;;;;;4.68;88.89;100620.19;226474;1269;22735;-73
2023/12/17 09:07:53;;;;;;;23.40;15.80;;;;;;;4.83;88.87;100627.67;226479;1271;22520;-72
2023/12/17 09:12:55;;;;;;;24.10;16.00;;;;;;;4.87;88.28;100627.77;226483;1273;22536;-74
2023/12/17 09:17:57;;;;;;;25.40;16.40;;;;;;;4.81;87.91;100624.89;226392;1273;22552;-74
2023/12/17 09:22:59;;;;;;;23.40;16.40;;;;;;;4.78;87.94;100627.21;226471;1272;24240;-74
2023/12/17 09:28:02;;;;;;;24.10;17.00;;;;;;;4.83;88.16;100630.17;226322;1272;25337;-73
2023/12/17 09:33:04;;;;;;;25.00;16.50;;;;;;;4.96;88.46;100629.77;226414;1272;24251;-75
2023/12/17 09:38:06;;;;;;;22.40;16.10;;;;;;;5.11;88.60;100625.38;226372;1269;22671;-73
2023/12/17 09:43:15;;;;;;;22.70;15.00;;;;;;;5.28;88.43;100623.69;226387;1272;22919;-75
2023/12/17 09:48:18;;;;;;;21.10;13.80;;;;;;;5.43;88.47;100622.61;226320;1273;22544;-73
2023/12/17 09:53:22;;;;;;;20.80;13.90;;;;;;;5.53;88.19;100616.78;226333;1272;22533;-74
2023/12/17 09:58:26;;;;;;;19.90;13.60;;;;;;;5.61;87.90;100615.70;226988;1272;22538;-75
2023/12/17 10:03:29;;;;;;;18.10;12.20;;;;;;;5.69;87.72;100612.10;226400;1272;22547;-73
2023/12/17 10:08:32;;;;;;;18.30;12.80;;;;;;;5.81;87.48;100613.84;226530;1272;24219;-73
2023/12/17 10:13:34;;;;;;;13.80;9.20;;;;;;;5.91;86.78;100615.77;226344;1274;24247;-74
2023/12/17 10:18:36;;;;;;;18.10;11.90;;;;;;;5.96;87.03;100608.20;226440;1272;22540;-73
2023/12/17 10:23:46;;;;;;;17.90;11.20;;;;;;;6.06;86.84;100599.59;226420;1272;22523;-73
2023/12/17 10:28:52;;;;;;;17.40;10.80;;;;;;;6.20;87.09;100599.42;226471;1272;22676;-75
2023/12/17 10:34:01;;;;;;;14.60;10.70;;;;;;;6.27;86.21;100587.33;226422;1256;23180;-74
2023/12/17 10:39:07;;;;;;;15.70;10.70;;;;;;;6.36;86.40;100585.64;226544;1272;22555;-75
2023/12/17 10:44:14;;;;;;;17.00;11.20;;;;;;;6.44;85.95;100575.19;226429;1272;22553;-73
2023/12/17 10:49:19;;;;;;;16.00;11.00;;;;;;;6.50;85.41;100571.45;226359;1273;22548;-74
2023/12/17 10:54:22;;;;;;;15.70;10.20;;;;;;;6.62;85.56;100557.02;226410;1273;22543;-74
2023/12/17 10:59:31;;;;;;;14.60;10.00;;;;;;;6.72;85.40;100550.08;226592;1273;22540;-74
2023/12/17 11:04:45;;;;;;;15.80;10.40;;;;;;;6.82;85.09;100560.67;226470;1263;22555;-74
2023/12/17 11:09:48;;;;;;;17.70;11.00;;;;;;;6.90;85.16;100554.08;226544;1272;26035;-75
2023/12/17 11:14:50;;;;;;;13.40;10.10;;;;;;;7.00;85.33;100546.30;226509;1273;25274;-74
2023/12/17 11:19:52;;;;;;;17.20;9.80;;;;;;;7.05;85.07;100543.92;226512;1273;24216;-73
2023/12/17 11:24:56;;;;;;;15.60;10.10;;;;;;;7.07;84.65;100540.31;226340;1274;98023;-74
2023/12/17 11:29:58;;;;;;;14.60;10.50;;;;;;;7.08;84.23;100528.48;226416;1275;22559;-74
2023/12/17 11:35:01;;;;;;;15.10;10.20;;;;;;;7.17;84.50;100533.23;226504;1273;22558;-75
2023/12/17 11:40:04;;;;;;;17.40;11.00;;;;;;;7.25;83.84;100532.23;226503;1272;22561;-73
2023/12/17 11:45:08;;;;;;;16.20;10.90;;;;;;;7.25;83.37;100528.92;226495;1272;22558;-72
2023/12/17 11:50:12;;;;;;;20.70;13.00;;;;;;;7.23;83.36;100523.59;226451;1274;22562;-74
2023/12/17 11:55:15;;;;;;;16.70;11.80;;;;;;;7.20;82.97;100525.59;226352;1274;22563;-75
2023/12/17 12:00:17;;;;;;;19.00;12.70;;;;;;;7.16;83.38;100516.30;226271;1274;22536;-73
2023/12/17 12:05:19;;;;;;;20.00;13.60;;;;;;;7.13;82.67;100513.75;226501;1272;22534;-74
2023/12/17 12:10:21;;;;;;;16.20;11.20;;;;;;;7.09;83.01;100518.44;226438;1273;23177;-73
2023/12/17 12:15:24;;;;;;;15.30;11.00;;;;;;;7.11;83.01;100517.77;226482;1273;22708;-75
2023/12/17 12:20:37;;;;;;;17.20;11.50;;;;;;;7.13;82.98;100515.77;226446;1271;22528;-73
2023/12/17 12:25:40;;;;;;;14.90;10.40;;;;;;;7.14;82.79;100505.95;226438;1274;22550;-74
2023/12/17 12:30:42;;;;;;;16.60;11.50;;;;;;;7.12;82.79;100511.56;226426;1272;24254;-75
2023/12/17 12:35:50;;;;;;;15.70;10.60;;;;;;;7.03;82.48;100519.63;226467;1273;22546;-73
2023/12/17 12:40:54;;;;;;;15.90;10.80;;;;;;;6.96;82.98;100521.52;226434;1274;22528;-73
2023/12/17 12:45:56;;;;;;;16.00;11.20;;;;;;;6.95;82.90;100517.13;226445;1266;22556;-74
2023/12/17 12:50:59;;;;;;;18.40;11.80;;;;;;;6.90;82.45;100519.94;226427;1273;24365;-73
2023/12/17 12:56:01;;;;;;;18.00;12.30;;;;;;;6.81;82.81;100522.91;226293;1257;25040;-73
2023/12/17 13:01:03;;;;;;;17.30;11.60;;;;;;;6.71;82.81;100522.64;226372;1274;22561;-74
2023/12/17 13:06:06;;;;;;;15.90;11.40;;;;;;;6.57;82.89;100519.23;226427;1272;24276;-74
2023/12/17 13:11:08;;;;;;;16.00;10.80;;;;;;;6.43;83.27;100503.52;226660;1270;22834;-72
2023/12/17 13:16:11;;;;;;;20.00;12.00;;;;;;;6.31;83.20;100499.91;226406;1266;22533;-73
2023/12/17 13:21:13;;;;;;;17.80;11.90;;;;;;;6.19;83.42;100498.92;226360;1274;22554;-74
2023/12/17 13:26:16;;;;;;;19.80;12.80;;;;;;;6.08;83.72;100490.87;226382;1266;23163;-73
2023/12/17 13:31:21;;;;;;;19.10;13.00;;;;;;;6.00;83.68;100481.46;226427;1272;24279;-74
2023/12/17 13:36:23;;;;;;;21.20;12.10;;;;;;;5.95;84.19;100468.73;226436;1266;22561;-74
2023/12/17 13:41:25;;;;;;;15.20;11.10;;;;;;;5.91;84.25;100460.66;226529;1271;22551;-73
2023/12/17 13:46:29;;;;;;;19.70;12.90;;;;;;;5.87;84.11;100456.73;226439;1272;22647;-74
2023/12/17 13:51:31;;;;;;;19.50;11.50;;;;;;;5.84;84.31;100448.08;226404;1272;22547;-73
2023/12/17 13:56:33;;;;;;;19.70;12.40;;;;;;;5.81;84.60;100440.95;226394;1274;22536;-75
2023/12/17 14:01:41;;;;;;;18.50;12.60;;;;;;;5.74;84.65;100434.34;226476;1274;22579;-74
2023/12/17 14:06:44;;;;;;;18.00;12.30;;;;;;;5.66;84.77;100437.20;226318;1274;22533;-76
2023/12/17 14:11:47;;;;;;;19.80;13.70;;;;;;;5.60;84.77;100436.41;226420;1272;22536;-73
2023/12/17 14:16:49;;;;;;;20.10;12.20;;;;;;;5.54;84.76;100433.38;226433;1274;22578;-74
2023/12/17 14:21:51;;;;;;;18.60;12.00;;;;;;;5.46;85.01;100432.91;226404;1273;24228;-73
2023/12/17 14:26:53;;;;;;;16.10;11.80;;;;;;;5.38;84.89;100439.14;226462;1274;24493;-74
2023/12/17 14:32:02;;;;;;;22.60;15.00;;;;;;;5.29;84.91;100447.98;226504;1273;22610;-73
2023/12/17 14:37:05;;;;;;;24.60;15.50;;;;;;;5.20;85.21;100443.44;226442;1274;25103;-74
2023/12/17 14:42:08;;;;;;;22.10;14.50;;;;;;;5.12;85.09;100446.14;226424;1273;22541;-74
2023/12/17 14:47:10;;;;;;;18.50;13.10;;;;;;;5.06;85.46;100457.39;226416;1274;22606;-74
2023/12/17 14:52:12;;;;;;;19.30;12.50;;;;;;;4.98;85.35;100466.58;226448;1274;22545;-74
2023/12/17 14:57:14;;;;;;;21.60;14.20;;;;;;;4.87;85.58;100468.38;226479;1257;22546;-75
2023/12/17 15:02:16;;;;;;;19.00;13.70;;;;;;;4.77;85.76;100472.63;226519;1268;22540;-74
2023/12/17 15:07:18;;;;;;;20.60;14.30;;;;;;;4.67;85.86;100471.19;226602;1273;22541;-73
2023/12/17 15:12:20;;;;;;;26.10;15.60;;;;;;;4.57;86.00;100465.96;226565;1273;22547;-73
2023/12/17 15:17:22;;;;;;;26.60;15.00;;;;;;;4.48;85.84;100468.93;226603;1273;22546;-74
2023/12/17 15:22:24;;;;;;;26.50;16.20;;;;;;;4.38;86.20;100465.06;226475;1273;22551;-74
2023/12/17 15:27:28;;;;;;;27.20;15.40;;;;;;;4.30;86.24;100458.00;226660;1273;23116;-74
2023/12/17 15:32:30;;;;;;;27.70;15.30;;;;;;;4.22;86.45;100448.02;226530;1273;23222;-74
2023/12/17 15:37:32;;;;;;;28.70;16.60;;;;;;;4.17;86.88;100437.60;226580;1273;24295;-73
2023/12/17 15:42:34;;;;;;;31.50;17.70;;;;;;;4.13;86.57;100426.56;226574;1267;22559;-75
2023/12/17 15:47:37;;;;;;;32.80;18.60;;;;;;;4.11;86.93;100436.11;226557;1272;22578;-74
2023/12/17 15:52:39;;;;;;;28.90;18.60;;;;;;;4.11;87.08;100434.53;226509;1274;22495;-72
2023/12/17 15:57:43;;;;;;;29.40;17.90;;;;;;;4.11;87.27;100426.30;226397;1273;22555;-72
2023/12/17 16:02:46;;;;;;;33.40;19.10;;;;;;;4.13;87.14;100430.76;226543;1274;22538;-74
2023/12/17 16:07:50;;;;;;;31.10;18.90;;;;;;;4.14;87.50;100432.24;226399;1273;22648;-73
2023/12/17 16:12:52;;;;;;;30.80;18.10;;;;;;;4.15;87.39;100437.55;226450;1271;25273;-73
2023/12/17 16:17:54;;;;;;;29.20;17.50;;;;;;;4.16;87.60;100435.56;226596;1273;25270;-73
2023/12/17 16:22:57;;;;;;;31.50;17.60;;;;;;;4.15;87.42;100428.27;226417;1273;24529;-73
2023/12/17 16:27:59;;;;;;;26.90;16.70;;;;;;;4.16;87.29;100424.39;226525;1270;22621;-73
2023/12/17 16:33:02;;;;;;;32.20;19.30;;;;;;;4.15;87.53;100420.10;226442;1267;25321;-74
2023/12/17 16:38:05;;;;;;;25.30;16.70;;;;;;;4.16;87.40;100428.25;226396;1273;23653;-73
2023/12/17 16:43:08;;;;;;;27.80;16.10;;;;;;;4.18;87.60;100423.91;226411;1273;22560;-73
2023/12/17 16:48:15;;;;;;;23.80;15.60;;;;;;;4.22;87.67;100421.55;226409;1274;23159;-74
2023/12/17 16:53:17;;;;;;;20.80;15.10;;;;;;;4.23;87.85;100423.20;226353;1274;22583;-75
2023/12/17 16:58:20;;;;;;;23.60;15.60;;;;;;;4.22;87.46;100409.66;226374;1274;22755;-73
2023/12/17 17:03:23;;;;;;;26.80;14.90;;;;;;;4.21;87.32;100406.09;226651;1263;22530;-74
2023/12/17 17:08:26;;;;;;;22.70;14.50;;;;;;;4.21;87.45;100403.84;226374;1270;22548;-73
2023/12/17 17:13:28;;;;;;;19.70;12.60;;;;;;;4.18;87.50;100409.22;227052;1270;22503;-72
2023/12/17 17:18:30;;;;;;;27.00;15.00;;;;;;;4.14;87.42;100403.27;226501;1271;22547;-72
2023/12/17 17:23:34;;;;;;;24.60;15.00;;;;;;;4.11;87.36;100400.70;226442;1273;22764;-73
2023/12/17 17:28:38;;;;;;;22.00;13.70;;;;;;;4.08;87.59;100408.91;226410;1273;22561;-73
2023/12/17 17:33:41;;;;;;;23.90;13.70;;;;;;;4.04;87.56;100412.00;226432;1271;24161;-73
2023/12/17 17:38:44;;;;;;;20.50;12.90;;;;;;;4.00;87.32;100414.77;226424;1269;25331;-73
2023/12/17 17:43:46;;;;;;;20.90;12.80;;;;;;;3.95;87.54;100412.31;226499;1272;22555;-73
2023/12/17 17:48:49;;;;;;;22.60;12.70;;;;;;;3.91;87.33;100404.73;226470;1256;22548;-73
2023/12/17 17:53:51;;;;;;;21.60;13.50;;;;;;;3.87;87.59;100399.75;226433;1273;22587;-73
2023/12/17 17:58:53;;;;;;;22.60;13.40;;;;;;;3.84;87.45;100401.89;226483;1272;25411;-73
2023/12/17 18:03:56;;;;;;;21.00;12.60;;;;;;;3.82;87.76;100402.55;226548;1273;22565;-73
2023/12/17 18:08:59;;;;;;;22.30;12.40;;;;;;;3.81;87.79;100402.77;226562;1263;22539;-72
2023/12/17 18:14:01;;;;;;;22.30;13.80;;;;;;;3.82;87.86;100402.86;226490;1272;22552;-73
2023/12/17 18:19:03;;;;;;;19.50;11.90;;;;;;;3.86;87.68;100398.42;226557;1273;23095;-73
2023/12/17 18:24:07;;;;;;;20.70;13.10;;;;;;;3.87;87.55;100383.67;226452;1269;22613;-73
2023/12/17 18:29:11;;;;;;;19.90;12.70;;;;;;;3.86;87.58;100383.95;226704;1273;23331;-73
2023/12/17 18:34:13;;;;;;;22.40;13.30;;;;;;;3.82;87.60;100376.04;226459;1273;23737;-73
2023/12/17 18:39:15;;;;;;;19.90;13.50;;;;;;;3.79;87.66;100377.63;226499;1273;24226;-72
2023/12/17 18:44:17;;;;;;;22.90;13.30;;;;;;;3.77;87.39;100389.12;226475;1270;22546;-74
2023/12/17 18:49:19;;;;;;;23.40;12.60;;;;;;;3.74;87.59;100387.09;226334;1273;22559;-73
2023/12/17 18:54:22;;;;;;;22.90;14.20;;;;;;;3.70;87.53;100369.92;226539;1270;24337;-73
2023/12/17 18:59:26;;;;;;;22.80;14.20;;;;;;;3.71;87.94;100366.38;226534;1273;25337;-74
2023/12/17 19:04:31;;;;;;;19.60;13.00;;;;;;;3.74;88.04;100368.55;226545;1272;22542;-74
2023/12/17 19:09:34;;;;;;;23.10;14.20;;;;;;;3.81;88.06;100372.67;226575;1270;22543;-73
2023/12/17 19:14:40;;;;;;;23.00;14.10;;;;;;;3.86;87.81;100373.14;226459;1274;22673;-73
2023/12/17 19:19:46;;;;;;;24.00;14.90;;;;;;;3.92;87.70;100372.41;226564;1268;22608;-74
2023/12/17 19:24:50;;;;;;;20.90;13.00;;;;;;;3.97;87.79;100373.95;226648;1273;22544;-74
2023/12/17 19:29:55;;;;;;;22.60;14.40;;;;;;;4.03;87.93;100371.43;226699;1273;22544;-74
2023/12/17 19:34:57;;;;;;;21.60;13.80;;;;;;;4.08;87.65;100374.05;226580;1273;22750;-74
2023/12/17 19:39:59;;;;;;;21.30;13.50;;;;;;;4.12;87.65;100373.46;226614;1273;24260;-73
2023/12/17 19:45:05;;;;;;;20.70;13.40;;;;;;;4.13;87.53;100374.27;226550;1273;22671;-74
2023/12/17 19:50:09;;;;;;;23.50;14.70;;;;;;;4.12;87.55;100366.61;226744;1272;22550;-74
2023/12/17 19:55:12;;;;;;;24.70;15.30;;;;;;;4.12;87.48;100368.52;226524;1272;25243;-73
2023/12/17 20:00:14;;;;;;;20.70;15.10;;;;;;;4.11;87.44;100362.20;226387;1274;22540;-74
2023/12/17 20:05:17;;;;;;;24.70;15.10;;;;;;;4.08;87.47;100357.52;226578;1271;25331;-74
2023/12/17 20:10:22;;;;;;;20.10;13.80;;;;;;;4.06;87.35;100353.45;226572;1272;22536;-73
2023/12/17 20:15:24;;;;;;;24.30;14.50;;;;;;;4.04;87.30;100343.46;226524;1270;22562;-75
2023/12/17 20:20:28;;;;;;;17.60;12.90;;;;;;;4.02;87.35;100338.42;226554;1269;22553;-73
2023/12/17 20:25:33;;;;;;;21.50;13.30;;;;;;;3.99;87.07;100329.21;226553;1267;22548;-74
2023/12/17 20:30:36;;;;;;;20.70;13.60;;;;;;;3.98;87.35;100322.52;226539;1272;22547;-74
2023/12/17 20:35:41;;;;;;;26.30;15.10;;;;;;;3.95;87.21;100316.63;226612;1272;22606;-74
2023/12/17 20:40:47;;;;;;;26.10;15.40;;;;;;;3.93;87.32;100313.80;226388;1273;22651;-74
2023/12/17 20:45:49;;;;;;;25.40;15.50;;;;;;;3.93;87.34;100311.52;226629;1270;22581;-74
2023/12/17 20:50:51;;;;;;;27.40;16.10;;;;;;;3.94;87.42;100301.48;226411;1273;22524;-75
2023/12/17 20:55:53;;;;;;;24.80;15.00;;;;;;;3.96;87.43;100304.48;226493;1270;26032;-75
2023/12/17 21:00:55;;;;;;;25.80;15.80;;;;;;;3.99;87.54;100314.77;226564;1263;22544;-74
2023/12/17 21:05:58;;;;;;;23.50;14.90;;;;;;;4.01;87.42;100315.77;226569;1269;22533;-74
2023/12/17 21:11:00;;;;;;;23.60;14.70;;;;;;;4.03;87.65;100314.77;226582;1270;22539;-75
2023/12/17 21:16:04;;;;;;;24.10;15.00;;;;;;;4.07;87.58;100315.55;226573;1273;22694;-74
2023/12/17 21:21:07;;;;;;;22.80;13.80;;;;;;;4.09;87.61;100312.05;226590;1272;22576;-75
2023/12/17 21:26:10;;;;;;;25.70;14.10;;;;;;;4.12;87.54;100314.48;226576;1273;22523;-74
2023/12/17 21:31:12;;;;;;;21.10;13.40;;;;;;;4.15;87.42;100312.73;226555;1269;23399;-74
2023/12/17 21:36:14;;;;;;;23.00;13.70;;;;;;;4.17;87.29;100307.46;226416;1272;22564;-75
2023/12/17 21:41:16;;;;;;;23.30;13.60;;;;;;;4.18;87.25;100299.41;226430;1270;23563;-74
2023/12/17 21:46:20;;;;;;;21.30;14.70;;;;;;;4.18;87.17;100292.41;226501;1273;25515;-75
2023/12/17 21:51:23;;;;;;;19.70;12.80;;;;;;;4.18;87.22;100293.30;226521;1273;22555;-74
2023/12/17 21:56:25;;;;;;;20.90;14.50;;;;;;;4.19;87.11;100300.41;226489;1272;22533;-74
2023/12/17 22:01:28;;;;;;;22.50;13.90;;;;;;;4.18;87.04;100303.96;226482;1273;22684;-75
2023/12/17 22:06:36;;;;;;;26.10;15.70;;;;;;;4.15;87.35;100307.81;226467;1273;22715;-72
2023/12/17 22:11:41;;;;;;;23.50;15.20;;;;;;;4.13;87.42;100316.18;226455;1263;22548;-75
2023/12/17 22:16:43;;;;;;;23.30;14.80;;;;;;;4.11;86.92;100316.98;226557;1269;23036;-74
2023/12/17 22:21:45;;;;;;;25.50;15.60;;;;;;;4.08;87.22;100312.17;226448;1274;27249;-74
2023/12/17 22:26:48;;;;;;;21.40;14.50;;;;;;;4.03;86.84;100308.54;226466;1273;22535;-75
2023/12/17 22:31:51;;;;;;;22.50;14.80;;;;;;;3.96;87.25;100297.86;226549;1270;22544;-72
2023/12/17 22:36:55;;;;;;;24.60;15.90;;;;;;;3.88;87.14;100290.39;226551;1270;22599;-73
2023/12/17 22:41:57;;;;;;;24.10;14.80;;;;;;;3.84;87.45;100290.19;226468;1269;23424;-74
2023/12/17 22:46:59;;;;;;;23.00;15.40;;;;;;;3.80;87.02;100290.46;226490;1273;22578;-75
2023/12/17 22:52:01;;;;;;;23.00;15.40;;;;;;;3.77;87.24;100285.07;226534;1271;22547;-75
2023/12/17 22:57:03;;;;;;;25.20;15.70;;;;;;;3.75;87.33;100289.54;226567;1272;22540;-74